Time;durP1;ratioP1;P1;durP2;ratioP2;P2;SDS_P1;SDS_P2;PMS_P1;PMS_P2;Temp;Humidity;BMP_temperature;BMP_pressure;BME280_temperature;BME280_humidity;BME280_pressure;Samples;Min_cycle;Max_cycle;Signal;HPM_P1;HPM_P2
2021/07/09 00:00:57;;;;;;;0.55;0.30;;;;;;;16.28;95.89;101429.94;5035667;28;20048;-88
2021/07/09 00:03:35;;;;;;;1.05;0.47;;;;;;;16.27;96.78;101436.53;5026174;28;20045;-88
2021/07/09 00:06:09;;;;;;;1.33;0.40;;;;;;;16.17;96.77;101433.94;5047939;28;20056;-88
2021/07/09 00:08:44;;;;;;;1.17;0.60;;;;;;;16.09;96.65;101423.66;5052470;28;20045;-88
2021/07/09 00:11:18;;;;;;;2.30;0.50;;;;;;;16.11;96.88;101429.66;5038184;28;20478;-88
2021/07/09 00:13:51;;;;;;;1.42;0.45;;;;;;;16.13;96.73;101430.19;5047449;28;20051;-88
2021/07/09 00:16:32;;;;;;;1.13;0.50;;;;;;;15.97;97.07;101427.66;5027998;28;20713;-88
2021/07/09 00:19:55;;;;;;;2.30;0.60;;;;;;;16.02;97.62;101437.75;5035000;28;20052;-88
2021/07/09 00:22:33;;;;;;;1.75;0.50;;;;;;;16.00;96.59;101429.00;5028072;28;20056;-88
2021/07/09 00:25:33;;;;;;;1.48;0.50;;;;;;;15.96;97.01;101422.47;5039628;28;20405;-87
2021/07/09 00:28:06;;;;;;;1.35;0.60;;;;;;;15.86;97.09;101417.16;5032299;28;20049;-88
2021/07/09 00:30:35;;;;;;;1.92;0.50;;;;;;;16.14;96.04;101429.88;5034037;28;20446;-88
2021/07/09 00:33:08;;;;;;;2.25;0.55;;;;;;;15.98;96.82;101431.22;5061491;28;20045;-88
2021/07/09 00:36:11;;;;;;;0.88;0.40;;;;;;;16.00;96.53;101431.75;5051035;28;20047;-87
2021/07/09 00:42:52;;;;;;;1.88;0.40;;;;;;;15.95;95.97;101434.56;5043387;28;20821;-88
2021/07/09 00:45:52;;;;;;;3.17;0.55;;;;;;;15.90;96.30;101426.41;5041391;28;20053;-88
2021/07/09 00:48:23;;;;;;;1.83;0.57;;;;;;;15.81;96.66;101420.75;5045208;28;20050;-87
2021/07/09 00:50:56;;;;;;;1.40;0.40;;;;;;;15.79;97.10;101422.97;5023513;28;20473;-89
2021/07/09 00:53:36;;;;;;;1.25;0.43;;;;;;;15.78;97.25;101433.16;5046085;28;20060;-88
2021/07/09 00:56:09;;;;;;;0.80;0.43;;;;;;;15.81;97.50;101429.00;5033006;28;20051;-88
2021/07/09 00:58:44;;;;;;;1.05;0.50;;;;;;;15.76;98.22;101435.34;5051493;28;20401;-87
2021/07/09 01:01:12;;;;;;;1.55;0.50;;;;;;;15.73;97.93;101440.59;5033588;28;20057;-88
2021/07/09 01:03:45;;;;;;;1.73;0.60;;;;;;;15.77;97.21;101436.16;5050075;28;20485;-87
2021/07/09 01:06:19;;;;;;;1.13;0.50;;;;;;;15.77;97.61;101436.16;5047331;28;20037;-88
2021/07/09 01:08:57;;;;;;;1.20;0.40;;;;;;;15.76;97.58;101434.56;5032525;28;20053;-87
2021/07/09 01:11:31;;;;;;;1.17;0.50;;;;;;;15.61;97.44;101408.13;5030353;28;20049;-87
2021/07/09 01:14:00;;;;;;;1.52;0.40;;;;;;;15.72;97.21;101430.75;5025283;28;20056;-87
2021/07/09 01:16:29;;;;;;;1.10;0.50;;;;;;;15.72;97.51;101430.75;5032382;28;20052;-88
2021/07/09 01:19:02;;;;;;;0.93;0.43;;;;;;;15.70;97.39;101424.75;5033302;28;20057;-88
2021/07/09 01:21:36;;;;;;;1.45;0.40;;;;;;;15.69;97.19;101425.84;5029155;28;20058;-87
2021/07/09 01:24:11;;;;;;;1.13;0.40;;;;;;;15.69;97.30;101429.44;5016892;28;20060;-88
2021/07/09 01:26:45;;;;;;;1.33;0.50;;;;;;;15.56;97.07;101414.50;5033249;28;20048;-88
2021/07/09 01:29:19;;;;;;;0.70;0.30;;;;;;;15.48;97.39;101421.47;5015677;28;20068;-87
2021/07/09 01:32:00;;;;;;;0.90;0.40;;;;;;;15.57;97.39;101418.88;5035820;28;20045;-88
2021/07/09 01:35:23;;;;;;;1.15;0.40;;;;;;;15.47;97.13;101421.78;5024083;28;20504;-88
2021/07/09 01:38:16;;;;;;;0.82;0.40;;;;;;;15.52;97.46;101431.84;5030899;28;20057;-87
2021/07/09 01:40:49;;;;;;;2.17;0.50;;;;;;;15.58;96.60;101426.00;5035523;28;20049;-87
2021/07/09 01:43:17;;;;;;;0.55;0.30;;;;;;;15.50;96.73;101432.16;5028718;28;20053;-89
2021/07/09 01:45:54;;;;;;;0.80;0.38;;;;;;;15.50;96.68;101431.34;5042143;28;20053;-89
2021/07/09 01:48:28;;;;;;;1.27;0.30;;;;;;;15.38;97.30;101426.28;5052780;28;20045;-88
2021/07/09 01:51:58;;;;;;;1.20;0.50;;;;;;;15.32;97.37;101430.19;5049116;28;20406;-89
2021/07/09 01:54:28;;;;;;;1.58;0.50;;;;;;;15.33;96.79;101423.59;5030024;28;20050;-88
2021/07/09 01:57:03;;;;;;;0.30;0.30;;;;;;;15.30;96.79;101428.56;5062431;28;20052;-87
2021/07/09 01:59:36;;;;;;;0.90;0.50;;;;;;;15.21;96.88;101402.09;5068882;28;20040;-88
2021/07/09 02:02:10;;;;;;;1.55;0.40;;;;;;;15.23;96.92;101419.06;5025429;28;20049;-88
2021/07/09 02:04:45;;;;;;;0.95;0.40;;;;;;;15.06;96.89;101411.31;5040668;28;20042;-88
2021/07/09 02:07:14;;;;;;;0.88;0.35;;;;;;;15.12;97.15;101427.41;5061069;28;20037;-87
2021/07/09 02:09:59;;;;;;;1.33;0.40;;;;;;;15.00;96.58;101418.78;5038397;28;20049;-88
2021/07/09 02:12:35;;;;;;;0.93;0.40;;;;;;;15.12;96.27;101432.06;5031436;28;20071;-88
2021/07/09 02:15:26;;;;;;;1.17;0.40;;;;;;;15.10;95.87;101426.06;5051328;28;20042;-88
2021/07/09 02:17:59;;;;;;;0.82;0.40;;;;;;;14.99;95.37;101432.78;5037023;28;20367;-88
2021/07/09 02:20:29;;;;;;;1.65;0.40;;;;;;;14.95;95.72;101429.78;5063595;28;20044;-87
2021/07/09 02:23:07;;;;;;;0.45;0.38;;;;;;;14.95;95.58;101447.03;5051149;28;20044;-88
2021/07/09 02:25:51;;;;;;;0.55;0.38;;;;;;;14.94;96.35;101445.44;5023534;28;20045;-88
2021/07/09 02:28:27;;;;;;;0.85;0.40;;;;;;;14.90;96.21;101444.38;5034956;28;20054;-89
2021/07/09 02:31:13;;;;;;;0.63;0.35;;;;;;;14.89;95.48;101437.25;5028348;28;20107;-88
2021/07/09 02:33:47;;;;;;;0.57;0.40;;;;;;;14.85;94.86;101429.91;5020048;28;20060;-88
2021/07/09 02:36:21;;;;;;;1.27;0.40;;;;;;;14.71;95.26;101422.38;5035812;28;20053;-88
2021/07/09 02:39:48;;;;;;;0.52;0.32;;;;;;;14.72;95.76;101436.88;5055070;28;20048;-88
2021/07/09 02:42:47;;;;;;;0.90;0.43;;;;;;;14.74;95.80;101431.94;5028138;28;20060;-87
2021/07/09 02:45:17;;;;;;;1.52;0.40;;;;;;;14.71;95.36;101441.56;5021491;28;20045;-88
2021/07/09 02:47:46;;;;;;;0.90;0.40;;;;;;;14.65;95.24;101433.66;5030093;28;20536;-88
2021/07/09 02:50:17;;;;;;;1.23;0.43;;;;;;;14.60;95.84;101421.63;5048023;28;20116;-89
2021/07/09 02:52:54;;;;;;;1.40;0.40;;;;;;;14.53;96.45;101412.94;5031216;28;20413;-88
2021/07/09 02:55:31;;;;;;;0.23;0.23;;;;;;;14.55;96.34;101420.84;5066124;28;20048;-87
2021/07/09 02:58:08;;;;;;;0.80;0.32;;;;;;;14.53;96.77;101410.19;5043580;28;20288;-89
2021/07/09 03:00:38;;;;;;;1.15;0.40;;;;;;;14.58;96.56;101409.31;5059133;28;20042;-87
2021/07/09 03:03:11;;;;;;;0.30;0.30;;;;;;;14.61;96.12;101408.72;5047429;28;20053;-88
2021/07/09 03:05:48;;;;;;;0.50;0.40;;;;;;;14.55;95.37;101398.94;5040453;28;20056;-88
2021/07/09 03:08:51;;;;;;;0.95;0.38;;;;;;;14.61;96.57;101401.34;5050331;28;20065;-87
2021/07/09 03:11:31;;;;;;;0.38;0.22;;;;;;;14.66;97.49;101407.91;5029031;28;20053;-88
2021/07/09 03:14:10;;;;;;;0.30;0.30;;;;;;;14.66;97.16;101403.25;5016778;28;20057;-88
2021/07/09 03:16:44;;;;;;;1.75;0.38;;;;;;;14.66;97.75;101400.50;5052287;28;20049;-88
2021/07/09 03:19:19;;;;;;;2.22;0.50;;;;;;;14.54;97.89;101389.09;5039888;28;20052;-87
2021/07/09 03:21:52;;;;;;;0.88;0.50;;;;;;;14.62;97.61;101403.03;5050365;28;20055;-89
2021/07/09 03:28:21;;;;;;;0.90;0.40;;;;;;;14.70;97.55;101400.75;5055981;28;19924;-89
2021/07/09 03:30:50;;;;;;;1.05;0.40;;;;;;;14.70;97.75;101379.63;5036302;28;20048;-87
2021/07/09 03:33:19;;;;;;;0.40;0.40;;;;;;;14.70;97.78;101379.63;5051004;28;20053;-87
2021/07/09 03:36:51;;;;;;;0.70;0.40;;;;;;;14.75;97.51;101382.34;5032902;28;20506;-88
2021/07/09 03:39:20;;;;;;;0.55;0.40;;;;;;;14.76;97.64;101378.50;5035041;28;20049;-88
2021/07/09 03:42:20;;;;;;;1.17;0.45;;;;;;;14.80;97.70;101375.97;5022834;28;20046;-88
2021/07/09 03:44:56;;;;;;;1.13;0.45;;;;;;;14.84;98.07;101377.03;5033976;28;20045;-88
2021/07/09 03:47:29;;;;;;;1.27;0.40;;;;;;;14.88;97.44;101369.84;5030346;28;20486;-88
2021/07/09 03:50:04;;;;;;;1.83;0.40;;;;;;;14.90;97.16;101359.44;5033573;28;20052;-88
2021/07/09 03:52:32;;;;;;;0.68;0.30;;;;;;;14.95;97.89;101359.34;5051756;28;20048;-88
2021/07/09 03:55:07;;;;;;;1.00;0.40;;;;;;;15.02;97.39;101359.00;5032243;28;20060;-88
2021/07/09 03:57:36;;;;;;;1.08;0.40;;;;;;;15.04;97.63;101350.47;5029953;28;20382;-88
2021/07/09 04:00:11;;;;;;;1.42;0.50;;;;;;;15.05;97.73;101361.16;5047243;28;20045;-87
2021/07/09 04:02:44;;;;;;;0.85;0.50;;;;;;;15.11;98.07;101353.69;5024995;28;20486;-88
2021/07/09 04:05:21;;;;;;;1.08;0.43;;;;;;;15.06;97.23;101353.75;5032309;28;20063;-88
2021/07/09 04:08:22;;;;;;;1.58;0.40;;;;;;;15.17;97.14;101343.47;5040192;28;20049;-88
2021/07/09 04:10:55;;;;;;;0.75;0.40;;;;;;;15.19;97.17;101349.47;5028113;28;20037;-88
2021/07/09 04:13:29;;;;;;;0.85;0.40;;;;;;;15.21;96.87;101336.28;5028797;28;20044;-87
2021/07/09 04:16:06;;;;;;;0.30;0.30;;;;;;;15.29;97.07;101325.47;5047615;28;20049;-88
2021/07/09 04:18:39;;;;;;;;;;;;;;;15.29;97.43;101319.97;5027726;28;20539;-88
2021/07/09 04:21:09;;;;;;;0.30;0.30;;;;;;;15.32;97.63;101313.09;5034807;28;19924;-88
2021/07/09 04:24:08;;;;;;;0.70;0.40;;;;;;;15.34;97.09;101310.84;5034971;28;20489;-88
2021/07/09 04:26:37;;;;;;;1.35;0.40;;;;;;;15.36;96.31;101313.31;5048037;28;20049;-89
2021/07/09 04:29:36;;;;;;;0.55;0.30;;;;;;;15.38;97.33;101322.06;5027978;28;20080;-88
2021/07/09 04:32:12;;;;;;;0.52;0.30;;;;;;;15.42;95.58;101321.16;5047787;28;20067;-88
2021/07/09 04:34:46;;;;;;;0.22;0.22;;;;;;;15.46;96.30;101315.91;5048836;28;20045;-88
2021/07/09 04:37:20;;;;;;;0.30;0.30;;;;;;;15.48;95.98;101316.44;5052686;28;20064;-88
2021/07/09 04:39:54;;;;;;;0.60;0.30;;;;;;;15.63;95.70;101323.59;5052789;28;20049;-88
2021/07/09 04:42:27;;;;;;;0.40;0.30;;;;;;;15.48;95.65;101314.50;5031654;28;20405;-88
2021/07/09 04:45:00;;;;;;;0.85;0.30;;;;;;;15.56;95.32;101325.91;5033553;28;20052;-88
2021/07/09 04:47:28;;;;;;;0.30;0.30;;;;;;;15.68;95.79;101314.47;5055375;28;20049;-87
2021/07/09 04:49:57;;;;;;;0.55;0.28;;;;;;;15.74;94.95;101324.25;5029123;28;20053;-88
2021/07/09 04:52:31;;;;;;;0.47;0.30;;;;;;;15.80;94.24;101328.59;5052206;28;20047;-88
2021/07/09 04:55:00;;;;;;;1.08;0.30;;;;;;;15.85;93.88;101342.22;5030757;28;20054;-88
2021/07/09 04:58:04;;;;;;;1.25;0.43;;;;;;;16.29;92.34;101342.84;5040114;28;20412;-88
2021/07/09 05:00:37;;;;;;;0.95;0.38;;;;;;;16.38;92.12;101341.03;5032178;28;20041;-87
2021/07/09 05:03:06;;;;;;;0.22;0.22;;;;;;;16.48;91.79;101346.31;5023782;28;20351;-88
2021/07/09 05:05:42;;;;;;;0.50;0.30;;;;;;;16.45;90.84;101343.38;5044529;28;20034;-87
2021/07/09 05:08:20;;;;;;;0.30;0.30;;;;;;;16.40;91.53;101335.22;5029829;28;20052;-87
2021/07/09 05:11:03;;;;;;;0.85;0.40;;;;;;;16.47;91.77;101343.88;5043682;28;20052;-88
2021/07/09 05:13:38;;;;;;;0.38;0.35;;;;;;;16.62;89.64;101346.34;5023603;28;20845;-87
2021/07/09 05:16:19;;;;;;;0.90;0.40;;;;;;;17.49;87.27;101340.16;5047783;28;20049;-88
2021/07/09 05:19:13;;;;;;;0.60;0.30;;;;;;;18.12;84.65;101338.38;5050858;28;20049;-88
2021/07/09 05:21:41;;;;;;;1.20;0.30;;;;;;;18.65;81.62;101319.31;5035609;28;20046;-89
2021/07/09 05:24:17;;;;;;;1.38;0.40;;;;;;;18.83;84.61;101306.41;5017987;28;20049;-88
2021/07/09 05:26:49;;;;;;;1.35;0.38;;;;;;;19.10;78.92;101323.81;5032412;28;20842;-88
2021/07/09 05:29:24;;;;;;;0.40;0.38;;;;;;;19.10;78.99;101315.56;5032806;28;20042;-87
2021/07/09 05:32:01;;;;;;;0.40;0.30;;;;;;;19.38;77.67;101324.38;5023898;28;20060;-88
2021/07/09 05:34:35;;;;;;;0.57;0.35;;;;;;;19.65;77.96;101314.94;5046933;28;20485;-89
2021/07/09 05:37:13;;;;;;;2.25;0.30;;;;;;;19.46;78.28;101320.78;5042820;28;20045;-88
2021/07/09 05:40:11;;;;;;;0.60;0.32;;;;;;;19.10;77.65;101323.81;5050181;28;20048;-88
2021/07/09 05:42:50;;;;;;;0.47;0.30;;;;;;;19.29;77.86;101305.06;5026749;28;20053;-88
2021/07/09 05:45:24;;;;;;;0.47;0.30;;;;;;;19.25;80.00;101309.59;5029558;28;20057;-89
2021/07/09 05:47:58;;;;;;;0.20;0.20;;;;;;;19.37;82.52;101315.28;5045503;28;20044;-89
2021/07/09 05:50:32;;;;;;;0.73;0.20;;;;;;;18.79;81.18;101317.25;5050502;28;20053;-89
2021/07/09 05:53:05;;;;;;;0.25;0.25;;;;;;;18.33;82.81;101326.81;5024008;28;20049;-89
2021/07/09 05:55:35;;;;;;;0.47;0.30;;;;;;;18.27;84.99;101317.88;5042124;28;20045;-88
2021/07/09 05:58:06;;;;;;;0.35;0.30;;;;;;;17.91;83.33;101329.81;5027320;28;20063;-89
2021/07/09 06:00:41;;;;;;;0.20;0.20;;;;;;;17.56;84.65;101296.50;5031324;28;20052;-89
2021/07/09 06:03:09;;;;;;;0.45;0.32;;;;;;;17.73;85.05;101328.88;5031949;28;20052;-89
2021/07/09 06:05:37;;;;;;;0.40;0.30;;;;;;;17.83;86.56;101325.03;5026153;28;20049;-88
2021/07/09 06:08:15;;;;;;;0.20;0.20;;;;;;;17.51;85.18;101315.88;5028178;28;20296;-89
2021/07/09 06:10:45;;;;;;;0.20;0.20;;;;;;;17.78;86.16;101325.97;5050387;28;20049;-88
2021/07/09 06:13:13;;;;;;;0.20;0.20;;;;;;;17.77;85.01;101323.53;5025344;28;20414;-89
2021/07/09 06:15:46;;;;;;;0.50;0.30;;;;;;;17.76;85.76;101319.97;5036338;28;20060;-88
2021/07/09 06:18:15;;;;;;;0.47;0.30;;;;;;;17.70;87.01;101310.19;5043768;28;20049;-88
2021/07/09 06:20:48;;;;;;;0.40;0.30;;;;;;;17.92;86.35;101303.91;5022430;28;20426;-88
2021/07/09 06:23:17;;;;;;;0.35;0.30;;;;;;;17.87;85.38;101303.19;5041040;28;20071;-88
2021/07/09 06:26:05;;;;;;;0.20;0.20;;;;;;;17.98;83.86;101305.41;5051807;28;20400;-89
2021/07/09 06:28:38;;;;;;;0.28;0.25;;;;;;;18.07;84.74;101299.94;5047358;28;20068;-88
2021/07/09 06:31:12;;;;;;;0.40;0.30;;;;;;;18.21;83.99;101305.34;5034322;28;20064;-86
2021/07/09 06:33:45;;;;;;;0.50;0.30;;;;;;;18.00;85.51;101300.38;5031122;28;20493;-89
2021/07/09 06:36:22;;;;;;;0.40;0.30;;;;;;;18.02;84.30;101284.38;5046176;28;20056;-87
2021/07/09 06:38:56;;;;;;;0.40;0.20;;;;;;;18.19;84.81;101300.16;5044869;28;20049;-90
2021/07/09 06:41:31;;;;;;;0.30;0.30;;;;;;;18.24;83.19;101307.47;5020949;28;20049;-89
2021/07/09 06:44:04;;;;;;;0.30;0.30;;;;;;;18.27;86.00;101298.59;5032664;28;20059;-86
2021/07/09 06:46:39;;;;;;;0.30;0.30;;;;;;;18.38;83.83;101304.66;5048170;28;20075;-88
2021/07/09 06:49:15;;;;;;;0.40;0.20;;;;;;;18.50;83.00;101304.03;5052406;28;20047;-87
2021/07/09 06:51:47;;;;;;;0.40;0.30;;;;;;;18.32;81.87;101314.16;5046662;28;20409;-89
2021/07/09 06:54:21;;;;;;;;;;;;;;;18.26;82.36;101310.72;5043263;28;20056;-90
2021/07/09 06:56:56;;;;;;;0.20;0.20;;;;;;;18.39;83.65;101311.75;5048327;28;19925;-89
2021/07/09 06:59:30;;;;;;;0.38;0.20;;;;;;;18.31;82.99;101298.75;5031317;28;20059;-89
2021/07/09 07:02:03;;;;;;;0.20;0.20;;;;;;;18.52;81.75;101312.81;5044032;28;20049;-88
2021/07/09 07:04:33;;;;;;;0.98;0.38;;;;;;;18.30;83.20;101311.72;5047583;28;20076;-91
2021/07/09 07:07:09;;;;;;;0.77;0.30;;;;;;;18.45;79.91;101290.38;5050123;28;20425;-87
2021/07/09 07:09:50;;;;;;;0.30;0.30;;;;;;;18.62;80.53;101303.44;5032567;28;20049;-88
2021/07/09 07:12:20;;;;;;;0.30;0.30;;;;;;;18.57;80.04;101315.38;5050429;28;20509;-88
2021/07/09 07:14:54;;;;;;;0.20;0.20;;;;;;;18.56;82.29;101316.53;5031527;28;20485;-89
2021/07/09 07:17:27;;;;;;;1.20;0.20;;;;;;;18.49;83.04;101299.63;5030347;28;20048;-89
2021/07/09 07:19:57;;;;;;;0.30;0.30;;;;;;;18.55;80.69;101295.63;5050133;28;20048;-90
2021/07/09 07:22:32;;;;;;;0.65;0.25;;;;;;;18.51;78.92;101300.16;5044801;28;20048;-89
2021/07/09 07:25:02;;;;;;;0.55;0.30;;;;;;;18.42;80.38;101302.88;5031256;28;20056;-88
2021/07/09 07:27:36;;;;;;;0.22;0.22;;;;;;;18.46;81.70;101298.34;5046524;28;20063;-88
2021/07/09 07:30:11;;;;;;;0.20;0.20;;;;;;;18.58;81.49;101308.75;5046612;28;20048;-89
2021/07/09 07:32:46;;;;;;;0.35;0.20;;;;;;;18.61;79.34;101318.34;5030548;28;20052;-89
2021/07/09 07:35:20;;;;;;;0.30;0.30;;;;;;;18.74;78.58;101324.84;5042696;28;20044;-85
2021/07/09 07:37:53;;;;;;;0.30;0.30;;;;;;;18.76;79.64;101317.09;5028414;28;21641;-85
2021/07/09 07:40:28;;;;;;;0.20;0.20;;;;;;;18.87;80.61;101310.13;5015061;28;20052;-84
2021/07/09 07:43:04;;;;;;;0.47;0.20;;;;;;;18.93;85.34;101321.88;5037282;28;20055;-86
2021/07/09 07:45:40;;;;;;;0.32;0.30;;;;;;;19.03;82.59;101311.34;5034027;28;20068;-88
2021/07/09 07:48:13;;;;;;;0.40;0.20;;;;;;;18.92;80.86;101317.47;5041147;28;20052;-85
2021/07/09 07:50:47;;;;;;;0.30;0.20;;;;;;;18.84;81.34;101311.59;5037787;28;20667;-86
2021/07/09 07:53:15;;;;;;;0.30;0.30;;;;;;;18.94;80.02;101312.47;5019310;28;20053;-85
2021/07/09 07:55:50;;;;;;;0.22;0.20;;;;;;;19.09;78.82;101312.00;5019706;28;20048;-86
2021/07/09 07:58:24;;;;;;;0.20;0.20;;;;;;;18.91;82.03;101313.91;5036624;28;20052;-87
2021/07/09 08:00:58;;;;;;;0.45;0.30;;;;;;;18.98;83.73;101317.00;5012883;28;20052;-85
2021/07/09 08:03:34;;;;;;;0.43;0.28;;;;;;;18.97;82.68;101311.81;5028415;28;20056;-84
2021/07/09 08:06:08;;;;;;;0.32;0.28;;;;;;;19.10;82.23;101308.09;5011299;28;20053;-85
2021/07/09 08:08:43;;;;;;;0.20;0.20;;;;;;;19.13;83.80;101312.19;5011309;28;20052;-87
2021/07/09 08:11:18;;;;;;;0.20;0.20;;;;;;;19.22;84.54;101309.41;5016634;28;20049;-87
2021/07/09 08:13:52;;;;;;;0.20;0.20;;;;;;;19.32;81.22;101314.59;5027311;28;20048;-88
2021/07/09 08:16:25;;;;;;;0.20;0.20;;;;;;;19.54;78.86;101305.34;5012378;28;20064;-86
2021/07/09 08:18:55;;;;;;;0.20;0.20;;;;;;;19.49;81.80;101302.78;5011188;28;20057;-86
2021/07/09 08:21:29;;;;;;;0.52;0.20;;;;;;;19.48;77.68;101309.41;5036331;28;20087;-86
2021/07/09 08:24:04;;;;;;;0.20;0.20;;;;;;;19.34;77.81;101313.16;5039051;28;20053;-85
2021/07/09 08:26:40;;;;;;;0.50;0.30;;;;;;;19.35;79.65;101311.22;5017774;28;20060;-85
2021/07/09 08:29:15;;;;;;;0.30;0.30;;;;;;;19.23;78.46;101311.03;5016737;28;20057;-86
2021/07/09 08:31:51;;;;;;;0.30;0.30;;;;;;;19.15;79.89;101315.41;5041075;28;20052;-86
2021/07/09 08:34:29;;;;;;;0.30;0.30;;;;;;;19.09;77.07;101313.94;5035347;28;20052;-92
2021/07/09 08:36:57;;;;;;;0.28;0.28;;;;;;;19.01;78.81;101293.47;5014370;28;20397;-87
2021/07/09 08:39:26;;;;;;;0.20;0.20;;;;;;;19.61;79.65;101325.00;5013250;28;20052;-85
2021/07/09 08:42:01;;;;;;;0.20;0.20;;;;;;;19.66;77.65;101313.78;5041278;28;20099;-87
2021/07/09 08:44:35;;;;;;;0.20;0.20;;;;;;;19.95;77.43;101323.34;5018050;28;20504;-87
2021/07/09 08:47:09;;;;;;;0.20;0.20;;;;;;;19.89;76.72;101308.09;4973142;28;20469;-86
2021/07/09 08:49:47;;;;;;;1.85;0.30;;;;;;;19.80;75.81;101310.88;5021894;28;20061;-88
2021/07/09 08:52:23;;;;;;;0.22;0.22;;;;;;;19.68;75.80;101306.00;5047391;28;20045;-86
2021/07/09 08:54:56;;;;;;;0.40;0.20;;;;;;;19.80;79.07;101308.09;5019676;28;20072;-88
2021/07/09 08:57:28;;;;;;;0.20;0.20;;;;;;;19.93;75.99;101302.72;5016491;28;20065;-87
2021/07/09 08:59:58;;;;;;;0.20;0.20;;;;;;;19.92;76.64;101292.84;5030180;28;20055;-85
2021/07/09 09:02:32;;;;;;;0.20;0.20;;;;;;;19.82;73.65;101296.75;5036691;28;20040;-87
2021/07/09 09:05:06;;;;;;;0.20;0.20;;;;;;;19.64;76.68;101293.19;5021201;28;20064;-87
2021/07/09 09:07:40;;;;;;;0.20;0.20;;;;;;;19.84;76.11;101297.22;5017948;28;20060;-88
2021/07/09 09:10:15;;;;;;;0.20;0.20;;;;;;;19.63;74.97;101289.59;5038846;28;20609;-86
2021/07/09 09:13:03;;;;;;;0.50;0.30;;;;;;;19.65;75.68;101297.53;5012282;28;20052;-86
2021/07/09 09:15:36;;;;;;;0.22;0.20;;;;;;;19.30;75.46;101292.06;5015533;28;20075;-86
2021/07/09 09:18:22;;;;;;;0.38;0.20;;;;;;;19.38;75.04;101294.81;5039192;28;20053;-88
2021/07/09 09:20:58;;;;;;;0.10;0.10;;;;;;;19.48;75.03;101301.94;5014520;28;20654;-87
2021/07/09 09:23:30;;;;;;;0.20;0.20;;;;;;;19.60;70.34;101297.75;5037879;28;20055;-86
2021/07/09 09:26:07;;;;;;;0.25;0.20;;;;;;;19.52;71.99;101305.69;5012837;28;20049;-86
2021/07/09 09:28:41;;;;;;;0.20;0.20;;;;;;;19.56;74.49;101313.31;5010677;28;20064;-85
2021/07/09 09:31:27;;;;;;;0.20;0.20;;;;;;;19.43;70.84;101318.69;5014312;28;20087;-84
2021/07/09 09:34:02;;;;;;;0.17;0.17;;;;;;;19.27;73.48;101312.03;5016351;28;20056;-87
2021/07/09 09:36:36;;;;;;;1.13;0.28;;;;;;;19.31;71.79;101305.53;5035907;28;20453;-88
2021/07/09 09:39:18;;;;;;;0.20;0.20;;;;;;;19.44;69.32;101308.44;5026506;28;20057;-87
2021/07/09 09:42:17;;;;;;;0.17;0.17;;;;;;;19.43;68.13;101310.41;5030476;28;20052;-89
2021/07/09 09:44:53;;;;;;;0.20;0.20;;;;;;;19.34;67.30;101312.34;5013668;28;20736;-87
2021/07/09 09:47:23;;;;;;;0.45;0.20;;;;;;;19.18;67.91;101303.72;5037621;28;20057;-88
2021/07/09 09:49:54;;;;;;;0.20;0.20;;;;;;;19.26;69.82;101308.44;5018029;28;20056;-88
2021/07/09 09:52:37;;;;;;;0.77;0.30;;;;;;;19.46;70.29;101309.75;5014947;28;20444;-87
2021/07/09 09:55:07;;;;;;;0.20;0.20;;;;;;;19.49;70.16;101309.09;5033628;28;20049;-83
2021/07/09 09:57:43;;;;;;;0.20;0.20;;;;;;;19.48;69.28;101315.75;5035151;28;20041;-84
2021/07/09 10:00:30;;;;;;;0.10;0.10;;;;;;;19.40;70.14;101299.19;5017279;28;20057;-86
2021/07/09 10:03:07;;;;;;;0.28;0.20;;;;;;;19.45;72.73;101305.34;5018281;28;20068;-84
2021/07/09 10:05:43;;;;;;;0.15;0.15;;;;;;;19.46;73.85;101304.22;5035748;28;20053;-84
2021/07/09 10:08:19;;;;;;;0.10;0.10;;;;;;;19.49;77.37;101300.81;5037817;28;20420;-84
2021/07/09 10:10:53;;;;;;;0.20;0.20;;;;;;;19.53;75.61;101292.69;5038290;28;20052;-84
2021/07/09 10:13:28;;;;;;;0.20;0.20;;;;;;;19.30;76.01;101281.81;5044247;28;20064;-86
2021/07/09 10:16:04;;;;;;;0.20;0.20;;;;;;;19.27;75.80;101287.19;5039337;28;20064;-87
2021/07/09 10:18:39;;;;;;;0.70;0.20;;;;;;;19.18;76.42;101279.72;5021057;28;20512;-86
2021/07/09 10:21:09;;;;;;;0.32;0.20;;;;;;;19.27;76.00;101276.94;5022023;28;20053;-85
2021/07/09 10:23:43;;;;;;;0.20;0.20;;;;;;;19.24;76.58;101276.78;5018851;28;20052;-84
2021/07/09 10:26:18;;;;;;;0.20;0.20;;;;;;;19.06;75.72;101273.19;5016708;28;20053;-85
2021/07/09 10:29:13;;;;;;;0.20;0.20;;;;;;;18.94;74.06;101282.13;5040160;28;20051;-86
2021/07/09 10:31:52;;;;;;;0.10;0.10;;;;;;;18.91;73.84;101286.34;5036445;28;21789;-87
2021/07/09 10:34:34;;;;;;;0.10;0.10;;;;;;;18.96;73.67;101288.13;4991561;28;20049;-86
2021/07/09 10:37:06;;;;;;;0.20;0.20;;;;;;;18.82;72.16;101283.53;5042537;28;20057;-87
2021/07/09 10:39:42;;;;;;;0.20;0.20;;;;;;;19.00;71.09;101280.81;5037016;28;20428;-86
2021/07/09 10:42:27;;;;;;;0.20;0.20;;;;;;;19.01;69.63;101279.69;5000903;28;20053;-87
2021/07/09 10:45:02;;;;;;;0.20;0.20;;;;;;;19.02;69.82;101278.56;5042697;28;20047;-87
2021/07/09 10:47:37;;;;;;;0.20;0.20;;;;;;;19.08;70.89;101276.47;5025013;28;21373;-89
2021/07/09 10:50:09;;;;;;;0.20;0.20;;;;;;;19.00;69.15;101275.31;5027461;28;20776;-88
2021/07/09 10:52:45;;;;;;;0.20;0.20;;;;;;;19.05;69.45;101264.13;5033116;28;20060;-87
2021/07/09 10:55:53;;;;;;;0.20;0.20;;;;;;;19.15;69.73;101271.25;5047398;28;20631;-86
2021/07/09 10:58:41;;;;;;;0.32;0.20;;;;;;;19.29;68.26;101269.19;5032928;28;20065;-86
2021/07/09 11:01:18;;;;;;;0.22;0.20;;;;;;;19.40;67.20;101271.59;5023574;28;20053;-86
2021/07/09 11:04:11;;;;;;;0.20;0.20;;;;;;;19.61;67.54;101275.31;5024751;28;20064;-85
2021/07/09 11:06:47;;;;;;;0.20;0.20;;;;;;;19.62;65.73;101276.13;5028312;28;20504;-84
2021/07/09 11:09:21;;;;;;;0.20;0.20;;;;;;;19.59;64.49;101266.53;5029677;28;20602;-86
2021/07/09 11:12:03;;;;;;;0.20;0.20;;;;;;;19.60;68.99;101262.66;5048028;28;21360;-85
2021/07/09 11:14:34;;;;;;;0.52;0.20;;;;;;;19.29;65.88;101257.31;5049574;28;20045;-88
2021/07/09 11:17:16;;;;;;;0.20;0.20;;;;;;;19.52;66.39;101257.94;5029340;28;20053;-87
2021/07/09 11:19:48;;;;;;;;;;;;;;;19.51;66.39;101257.16;5046702;28;20050;-87
2021/07/09 11:22:19;;;;;;;0.20;0.20;;;;;;;19.59;66.32;101254.69;5028114;28;19936;-85
2021/07/09 11:24:57;;;;;;;0.17;0.17;;;;;;;19.47;67.23;101242.38;5031629;28;20049;-87
2021/07/09 11:27:32;;;;;;;0.30;0.20;;;;;;;19.58;68.02;101255.81;5026054;28;20052;-86
2021/07/09 11:30:08;;;;;;;0.17;0.17;;;;;;;19.62;67.92;101260.34;5028452;28;20064;-86
2021/07/09 11:32:42;;;;;;;0.10;0.10;;;;;;;19.44;68.43;101259.56;5027763;28;20064;-88
2021/07/09 11:35:15;;;;;;;0.20;0.20;;;;;;;19.47;67.26;101252.59;5045904;28;20048;-85
2021/07/09 11:37:46;;;;;;;0.20;0.20;;;;;;;19.32;70.24;101251.97;5019585;28;20061;-85
2021/07/09 11:40:21;;;;;;;0.20;0.20;;;;;;;19.42;69.28;101255.53;5023005;28;20048;-86
2021/07/09 11:42:50;;;;;;;0.20;0.20;;;;;;;19.34;72.00;101248.88;5023364;28;20056;-86
2021/07/09 11:45:29;;;;;;;0.20;0.20;;;;;;;19.34;69.48;101241.41;5037900;28;20041;-86
2021/07/09 11:48:07;;;;;;;0.90;0.45;;;;;;;19.28;69.75;101239.94;5029238;28;20049;-87
2021/07/09 11:50:41;;;;;;;0.15;0.15;;;;;;;19.43;72.10;101254.38;5026616;28;21316;-87
2021/07/09 11:53:15;;;;;;;0.20;0.20;;;;;;;19.27;70.24;101224.53;5025974;28;20056;-88
2021/07/09 11:55:52;;;;;;;0.15;0.15;;;;;;;19.18;72.37;101230.06;5043063;28;20059;-86
2021/07/09 11:58:25;;;;;;;0.20;0.20;;;;;;;19.42;73.54;101241.72;5024385;28;20059;-88
2021/07/09 12:00:59;;;;;;;0.30;0.22;;;;;;;19.37;73.15;101238.00;5044490;28;20044;-87
2021/07/09 12:03:31;;;;;;;0.20;0.20;;;;;;;19.47;73.91;101239.63;5023197;28;20056;-87
2021/07/09 12:06:19;;;;;;;0.20;0.20;;;;;;;19.36;75.12;101246.59;5019871;28;20053;-88
2021/07/09 12:09:00;;;;;;;0.20;0.20;;;;;;;19.42;74.56;101258.28;5023743;28;20049;-83
2021/07/09 12:11:33;;;;;;;0.20;0.20;;;;;;;19.36;77.54;101257.63;5022053;28;20057;-87
2021/07/09 12:14:10;;;;;;;0.20;0.20;;;;;;;19.33;77.15;101258.28;5019192;28;20056;-84
2021/07/09 12:16:49;;;;;;;0.30;0.20;;;;;;;19.27;77.73;101248.56;5037534;28;20048;-86
2021/07/09 12:19:18;;;;;;;0.20;0.20;;;;;;;19.40;77.40;101241.22;5045226;28;20045;-88